createdAt,value
2023-03-22T00:02:36.511Z,9.60
2023-03-22T00:05:40.037Z,10.20
2023-03-22T00:08:42.023Z,13.55
2023-03-22T00:11:43.860Z,11.20
2023-03-22T00:14:45.610Z,9.80
2023-03-22T00:17:47.794Z,10.82
2023-03-22T00:20:51.041Z,10.25
2023-03-22T00:23:52.874Z,13.00
2023-03-22T00:26:54.593Z,11.30
2023-03-22T00:29:56.220Z,11.32
2023-03-22T00:32:58.062Z,10.70
2023-03-22T00:36:06.671Z,11.50
2023-03-22T00:39:08.804Z,10.20
2023-03-22T00:42:11.112Z,11.80
2023-03-22T00:45:13.327Z,11.95
2023-03-22T00:48:15.010Z,13.15
2023-03-22T00:51:18.183Z,12.55
2023-03-22T00:54:20.293Z,13.45
2023-03-22T00:57:23.211Z,12.45
2023-03-22T01:00:25.389Z,11.85
2023-03-22T01:03:27.148Z,13.90
2023-03-22T01:06:29.675Z,16.00
2023-03-22T01:09:33.736Z,12.57
2023-03-22T01:12:36.000Z,14.27
2023-03-22T01:15:37.898Z,12.65
2023-03-22T01:18:40.061Z,12.23
2023-03-22T01:21:42.602Z,16.23
2023-03-22T01:24:44.392Z,11.98
2023-03-22T01:27:46.175Z,13.00
2023-03-22T01:30:47.841Z,13.70
2023-03-22T01:33:49.495Z,12.68
2023-03-22T01:36:51.268Z,11.60
2023-03-22T01:39:56.730Z,13.18
2023-03-22T01:42:59.032Z,13.23
2023-03-22T01:46:01.579Z,11.80
2023-03-22T01:49:06.529Z,13.70
2023-03-22T01:52:14.778Z,13.20
2023-03-22T01:55:41.125Z,17.40
2023-03-22T01:58:48.280Z,14.23
2023-03-22T02:01:53.730Z,12.27
2023-03-22T02:04:58.078Z,13.57
2023-03-22T02:08:04.370Z,13.45
2023-03-22T02:11:42.186Z,13.05
2023-03-22T02:15:30.590Z,13.73
2023-03-22T02:19:32.056Z,15.07
2023-03-22T02:22:39.452Z,13.05
2023-03-22T02:25:47.166Z,15.18
2023-03-22T02:28:57.651Z,11.75
2023-03-22T02:32:23.772Z,16.42
2023-03-22T02:36:03.372Z,15.00
2023-03-22T02:39:32.711Z,16.08
2023-03-22T02:42:45.019Z,14.27
2023-03-22T02:45:57.277Z,12.43
2023-03-22T02:49:13.850Z,12.27
2023-03-22T02:52:21.590Z,16.00
2023-03-22T02:55:35.323Z,16.42
2023-03-22T02:58:53.128Z,14.23
2023-03-22T03:01:59.092Z,15.32
2023-03-22T03:05:01.592Z,14.75
2023-03-22T03:08:04.312Z,17.35
2023-03-22T03:11:08.791Z,16.90
2023-03-22T03:14:24.550Z,17.60
2023-03-22T03:17:58.305Z,17.00
2023-03-22T03:21:25.935Z,15.27
2023-03-22T03:24:51.381Z,18.70
2023-03-22T03:28:31.559Z,15.45
2023-03-22T03:31:33.641Z,16.43
2023-03-22T03:34:52.699Z,15.65
2023-03-22T03:38:03.372Z,14.77
2023-03-22T03:41:11.312Z,14.07
2023-03-22T03:44:14.296Z,14.93
2023-03-22T03:47:16.830Z,14.02
2023-03-22T03:50:20.437Z,16.70
2023-03-22T03:53:22.409Z,13.60
2023-03-22T03:56:24.207Z,15.43
2023-03-22T03:59:28.560Z,13.65
2023-03-22T04:02:31.801Z,13.98
2023-03-22T04:05:35.565Z,14.88
2023-03-22T04:08:37.313Z,12.85
2023-03-22T04:11:39.363Z,13.77
2023-03-22T04:14:41.869Z,13.32
2023-03-22T04:17:53.892Z,14.85
2023-03-22T04:20:58.216Z,15.25
2023-03-22T04:24:02.943Z,15.20
2023-03-22T04:27:09.998Z,13.70
2023-03-22T04:30:24.802Z,16.52
2023-03-22T04:33:39.603Z,16.05
2023-03-22T04:36:52.610Z,16.42
2023-03-22T04:40:01.324Z,14.70
2023-03-22T04:43:21.424Z,18.10
2023-03-22T04:46:36.873Z,16.70
2023-03-22T04:49:41.821Z,19.20
2023-03-22T04:52:43.671Z,20.23
2023-03-22T04:55:46.039Z,16.02
2023-03-22T04:58:48.103Z,16.90
2023-03-22T05:01:51.751Z,18.65
2023-03-22T05:04:57.478Z,17.63
2023-03-22T05:08:07.893Z,17.27
2023-03-22T05:11:13.777Z,16.38
2023-03-22T05:14:19.453Z,18.13
2023-03-22T05:17:21.722Z,19.95
2023-03-22T05:20:25.645Z,17.83
2023-03-22T05:23:42.789Z,16.48
2023-03-22T05:26:46.394Z,19.42
2023-03-22T05:29:49.842Z,16.80
2023-03-22T05:33:03.412Z,18.98
2023-03-22T05:36:09.489Z,18.58
2023-03-22T05:39:20.413Z,18.35
2023-03-22T05:42:22.084Z,17.00
2023-03-22T05:45:24.165Z,19.50
2023-03-22T05:48:39.057Z,18.02
2023-03-22T05:51:42.666Z,18.90
2023-03-22T05:54:46.773Z,18.02
2023-03-22T05:57:53.840Z,18.90
2023-03-22T06:01:00.906Z,19.33
2023-03-22T06:04:21.278Z,22.23
2023-03-22T06:07:29.122Z,20.63
2023-03-22T06:10:35.935Z,19.77
2023-03-22T06:13:38.041Z,21.63
2023-03-22T06:16:41.384Z,19.98
2023-03-22T06:19:43.074Z,20.38
2023-03-22T06:22:46.319Z,18.83
2023-03-22T06:25:48.177Z,19.67
2023-03-22T06:28:51.231Z,16.70
2023-03-22T06:31:53.364Z,22.33
2023-03-22T06:34:55.385Z,19.23
2023-03-22T06:37:58.892Z,18.40
2023-03-22T06:41:00.788Z,21.67
2023-03-22T06:44:02.949Z,17.13
2023-03-22T06:47:37.890Z,18.67
2023-03-22T06:50:44.121Z,19.98
2023-03-22T06:53:49.412Z,19.08
2023-03-22T06:56:51.146Z,21.20
2023-03-22T06:59:52.856Z,20.42
2023-03-22T07:02:54.871Z,20.25
2023-03-22T07:06:14.732Z,20.87
2023-03-22T07:09:20.760Z,16.10
2023-03-22T07:12:24.893Z,18.02
2023-03-22T07:15:27.067Z,16.25
2023-03-22T07:18:35.913Z,19.60
2023-03-22T07:21:37.770Z,17.75
2023-03-22T07:24:54.053Z,17.75
2023-03-22T07:28:00.444Z,18.02
2023-03-22T07:31:10.024Z,17.50
2023-03-22T07:34:38.016Z,17.13
2023-03-22T07:37:46.105Z,14.43
2023-03-22T07:40:59.799Z,16.30
2023-03-22T07:44:19.233Z,17.67
2023-03-22T07:47:40.734Z,14.70
2023-03-22T07:50:56.491Z,13.23
2023-03-22T07:54:01.576Z,12.70
2023-03-22T07:57:05.381Z,14.40
2023-03-22T08:00:11.151Z,13.02
2023-03-22T08:03:25.396Z,24.77
2023-03-22T08:06:43.794Z,10.98
2023-03-22T08:09:46.147Z,11.52
2023-03-22T08:12:48.120Z,16.50
2023-03-22T08:16:02.284Z,8.75
2023-03-22T08:19:06.807Z,12.15
2023-03-22T08:22:11.985Z,12.45
2023-03-22T08:25:33.635Z,11.68
2023-03-22T08:28:42.511Z,11.70
2023-03-22T08:31:45.176Z,12.25
2023-03-22T08:34:47.448Z,14.07
2023-03-22T08:37:54.829Z,12.82
2023-03-22T08:40:59.697Z,11.32
2023-03-22T08:44:01.922Z,13.80
2023-03-22T08:47:05.593Z,13.40
2023-03-22T08:50:09.264Z,12.23
2023-03-22T08:53:22.315Z,12.95
2023-03-22T08:56:38.222Z,13.27
2023-03-22T08:59:58.600Z,14.43
2023-03-22T09:03:18.764Z,9.32
2023-03-22T09:06:20.699Z,11.40
2023-03-22T09:09:22.848Z,13.35
2023-03-22T09:12:27.840Z,9.23
2023-03-22T09:15:29.865Z,13.68
2023-03-22T09:18:47.169Z,9.50
2023-03-22T09:21:55.581Z,10.27
2023-03-22T09:25:13.406Z,11.50
2023-03-22T09:28:19.297Z,10.93
2023-03-22T09:31:21.251Z,10.15
2023-03-22T09:34:32.844Z,11.52
2023-03-22T09:37:35.465Z,8.23
2023-03-22T09:40:43.802Z,7.95
2023-03-22T09:43:54.082Z,7.88
2023-03-22T09:47:00.105Z,11.10
2023-03-22T09:50:13.167Z,7.68
2023-03-22T09:53:17.456Z,7.00
2023-03-22T09:56:31.838Z,8.90
2023-03-22T09:59:49.697Z,10.48
2023-03-22T10:03:19.159Z,9.05
2023-03-22T10:06:24.827Z,7.60
2023-03-22T10:09:41.218Z,5.32
2023-03-22T10:12:46.943Z,8.48
2023-03-22T10:16:16.989Z,4.45
2023-03-22T10:19:35.668Z,4.47
2023-03-22T10:22:44.076Z,5.38
2023-03-22T10:25:47.378Z,5.65
2023-03-22T10:29:13.676Z,5.57
2023-03-22T10:32:54.685Z,4.57
2023-03-22T10:36:01.352Z,6.32
2023-03-22T10:39:28.613Z,5.55
2023-03-22T10:42:31.616Z,5.80
2023-03-22T10:45:36.867Z,6.25
2023-03-22T10:48:44.093Z,4.07
2023-03-22T10:51:56.756Z,6.10
2023-03-22T10:55:03.009Z,5.40
2023-03-22T10:58:19.662Z,4.93
2023-03-22T11:01:36.995Z,5.28
2023-03-22T11:04:39.081Z,5.80
2023-03-22T11:07:44.676Z,7.63
2023-03-22T11:10:51.372Z,3.97
2023-03-22T11:14:14.350Z,6.05
2023-03-22T11:17:23.294Z,3.50
2023-03-22T11:20:25.276Z,3.65
2023-03-22T11:23:29.954Z,3.70
2023-03-22T11:26:38.812Z,3.47
2023-03-22T11:29:49.159Z,3.65
2023-03-22T11:33:01.706Z,4.78
2023-03-22T11:36:21.486Z,6.10
2023-03-22T11:39:30.224Z,3.47
2023-03-22T11:42:34.802Z,1.90
2023-03-22T11:45:41.406Z,2.47
2023-03-22T11:48:45.327Z,4.50
2023-03-22T11:51:47.534Z,3.63
2023-03-22T11:54:50.285Z,3.85
2023-03-22T11:57:55.892Z,3.30
2023-03-22T12:01:01.779Z,2.58
2023-03-22T12:04:08.867Z,3.40
2023-03-22T12:07:16.238Z,2.85
2023-03-22T12:10:42.364Z,5.60
2023-03-22T12:13:50.154Z,4.28
2023-03-22T12:17:01.051Z,3.67
2023-03-22T12:23:16.660Z,5.03
2023-03-22T12:26:24.072Z,4.47
2023-03-22T12:29:27.853Z,2.70
2023-03-22T12:32:38.668Z,3.85
2023-03-22T12:35:45.208Z,3.92
2023-03-22T12:38:53.950Z,4.30
2023-03-22T12:42:01.284Z,5.45
2023-03-22T12:45:11.386Z,5.10
2023-03-22T12:48:20.930Z,3.88
2023-03-22T12:51:22.994Z,4.37
2023-03-22T12:54:26.088Z,4.65
2023-03-22T12:57:28.557Z,4.93
2023-03-22T13:00:58.749Z,6.00
2023-03-22T13:04:43.347Z,2.30
2023-03-22T13:07:48.009Z,3.45
2023-03-22T13:10:58.030Z,4.65
2023-03-22T13:13:59.809Z,2.58
2023-03-22T13:17:01.827Z,3.75
2023-03-22T13:20:08.566Z,2.70
2023-03-22T13:23:25.020Z,4.25
2023-03-22T13:26:57.354Z,3.88
2023-03-22T13:29:59.937Z,3.10
2023-03-22T13:33:13.605Z,5.55
2023-03-22T13:36:32.129Z,4.03
2023-03-22T13:39:36.473Z,3.97
2023-03-22T13:42:40.399Z,6.45
2023-03-22T13:46:25.480Z,3.80
2023-03-22T13:49:51.244Z,3.33
2023-03-22T13:52:59.021Z,4.55
2023-03-22T13:56:07.098Z,4.90
2023-03-22T13:59:19.168Z,3.20
2023-03-22T14:02:33.963Z,3.80
2023-03-22T14:05:38.809Z,5.20
2023-03-22T14:08:44.328Z,5.38
2023-03-22T14:11:58.430Z,2.47
2023-03-22T14:15:06.799Z,5.00
2023-03-22T14:18:32.896Z,3.65
2023-03-22T14:21:39.118Z,4.20
